createdAt,value
2019-02-23T19:52:32.303Z,35.63
2019-02-23T19:55:01.642Z,35.91
2019-02-23T19:57:30.980Z,36.11
2019-02-23T20:00:00.310Z,36.22
2019-02-23T20:02:29.624Z,36.18
2019-02-23T20:04:59.031Z,36.15
2019-02-23T20:07:28.366Z,36.22
2019-02-23T20:09:57.679Z,36.28
2019-02-23T20:12:28.210Z,36.31
2019-02-23T20:14:57.602Z,36.26
2019-02-23T20:17:26.981Z,36.20
2019-02-23T20:19:56.261Z,36.40
2019-02-23T20:22:25.582Z,36.49
2019-02-23T20:24:54.990Z,36.55
2019-02-23T20:27:24.291Z,36.56
2019-02-23T20:29:53.649Z,36.60
2019-02-23T20:32:23.053Z,36.60
2019-02-23T20:34:52.414Z,36.61
2019-02-23T20:38:39.652Z,36.54
2019-02-23T20:41:11.202Z,36.53
2019-02-23T20:43:41.638Z,36.66
2019-02-23T20:46:12.205Z,36.65
2019-02-23T20:48:43.524Z,36.60
2019-02-23T20:51:13.988Z,36.59
2019-02-23T20:53:44.448Z,36.66
2019-02-23T20:56:14.886Z,36.56
2019-02-23T20:58:45.267Z,36.66
2019-02-23T21:01:15.663Z,36.71
2019-02-23T21:03:46.532Z,36.75
2019-02-23T21:06:16.968Z,36.76
2019-02-23T21:08:47.385Z,36.84
2019-02-23T21:11:17.879Z,36.94
2019-02-23T21:13:48.237Z,36.96
2019-02-23T21:16:18.721Z,37.07
2019-02-23T21:21:53.389Z,37.04
2019-02-23T21:24:22.721Z,37.01
2019-02-23T21:26:52.056Z,37.03
2019-02-23T21:29:21.435Z,37.05
2019-02-23T21:31:50.793Z,37.09
2019-02-23T21:34:20.126Z,37.02
2019-02-23T21:36:49.446Z,37.01
2019-02-23T21:39:18.825Z,37.01
2019-02-23T21:41:48.238Z,36.93
2019-02-23T21:44:17.623Z,36.91
2019-02-23T21:46:46.887Z,36.69
2019-02-23T21:49:16.250Z,36.84
2019-02-23T21:51:45.598Z,36.75
2019-02-23T21:54:14.946Z,36.81
2019-02-23T21:56:44.387Z,36.83
2019-02-23T21:59:13.734Z,36.83
2019-02-23T22:01:43.066Z,36.77
2019-02-23T22:04:12.420Z,36.89
2019-02-23T22:06:42.045Z,36.90
2019-02-23T22:09:11.356Z,36.83
2019-02-23T22:11:40.738Z,36.85
2019-02-23T22:14:10.048Z,36.81
2019-02-23T22:16:39.391Z,36.83
2019-02-23T22:19:08.714Z,36.79
2019-02-23T22:21:38.176Z,36.77
2019-02-23T22:24:07.470Z,36.85
2019-02-23T22:26:36.789Z,36.83
2019-02-23T22:29:06.172Z,36.87
2019-02-23T22:31:35.534Z,36.94
2019-02-23T22:34:04.837Z,37.05
2019-02-23T22:36:34.166Z,37.12
2019-02-23T22:39:04.514Z,37.22
2019-02-23T22:41:33.889Z,37.17
2019-02-23T22:44:03.863Z,37.17
2019-02-23T22:46:33.538Z,37.19
2019-02-23T22:49:03.139Z,37.08
2019-02-23T22:51:32.772Z,36.75
2019-02-23T22:54:02.399Z,37.08
2019-02-23T22:56:32.022Z,37.20
2019-02-23T22:59:01.819Z,37.18
2019-02-23T23:01:33.678Z,37.25
2019-02-23T23:04:03.591Z,37.23
2019-02-23T23:06:33.267Z,37.25
2019-02-23T23:09:02.965Z,37.29
2019-02-23T23:11:32.822Z,37.28
2019-02-23T23:14:02.530Z,37.30
2019-02-23T23:16:32.215Z,37.35
2019-02-23T23:19:01.815Z,37.23
2019-02-23T23:21:31.439Z,37.17
2019-02-23T23:24:01.060Z,37.17
2019-02-23T23:26:30.768Z,37.20
2019-02-23T23:29:00.398Z,37.25
2019-02-23T23:31:30.000Z,37.17
2019-02-23T23:33:59.643Z,36.95
2019-02-23T23:36:29.363Z,36.75
2019-02-23T23:38:58.992Z,36.54
2019-02-23T23:41:28.685Z,36.79
2019-02-23T23:43:58.359Z,36.71
2019-02-23T23:46:28.238Z,36.73
2019-02-23T23:48:57.933Z,36.59
2019-02-23T23:51:27.535Z,36.73
2019-02-23T23:53:57.205Z,36.66
2019-02-23T23:56:26.972Z,36.63
2019-02-23T23:58:56.905Z,36.63
